createdAt,value
2023-04-18T00:00:27.845Z,8.31
2023-04-18T00:02:56.274Z,8.29
2023-04-18T00:05:24.608Z,8.29
2023-04-18T00:07:53.440Z,8.30
2023-04-18T00:10:21.700Z,8.30
2023-04-18T00:12:49.747Z,8.30
2023-04-18T00:15:18.613Z,8.29
2023-04-18T00:17:48.289Z,8.28
2023-04-18T00:20:16.377Z,8.27
2023-04-18T00:22:46.718Z,8.28
2023-04-18T00:25:14.902Z,8.27
2023-04-18T00:27:43.469Z,8.26
2023-04-18T00:30:11.965Z,8.26
2023-04-18T00:32:40.303Z,8.26
2023-04-18T00:35:08.759Z,8.25
2023-04-18T00:37:37.498Z,8.23
2023-04-18T00:40:06.465Z,8.22
2023-04-18T00:42:35.095Z,8.20
2023-04-18T00:45:03.138Z,8.20
2023-04-18T00:47:31.337Z,8.18
2023-04-18T00:49:59.663Z,8.16
2023-04-18T00:52:27.933Z,8.13
2023-04-18T00:54:56.193Z,8.11
2023-04-18T00:57:24.576Z,8.07
2023-04-18T00:59:52.632Z,8.05
2023-04-18T01:02:20.798Z,8.01
2023-04-18T01:04:49.220Z,7.98
2023-04-18T01:07:17.709Z,7.95
2023-04-18T01:09:45.799Z,7.93
2023-04-18T01:12:14.198Z,7.91
2023-04-18T01:14:43.126Z,7.88
2023-04-18T01:17:13.521Z,7.85
2023-04-18T01:19:41.675Z,7.83
2023-04-18T01:23:04.014Z,7.80
2023-04-18T01:25:32.808Z,7.78
2023-04-18T01:28:01.081Z,7.76
2023-04-18T01:30:29.484Z,7.75
2023-04-18T01:33:03.626Z,7.73
2023-04-18T01:35:32.436Z,7.72
2023-04-18T01:38:00.752Z,7.70
2023-04-18T01:40:30.149Z,7.68
2023-04-18T01:42:58.110Z,7.68
2023-04-18T01:45:26.130Z,7.66
2023-04-18T01:47:54.190Z,7.65
2023-04-18T01:50:22.370Z,7.64
2023-04-18T01:52:50.495Z,7.63
2023-04-18T01:55:18.569Z,7.60
2023-04-18T01:57:46.586Z,7.58
2023-04-18T02:00:14.795Z,7.58
2023-04-18T02:02:43.281Z,7.55
2023-04-18T02:05:11.541Z,7.55
2023-04-18T02:07:41.247Z,7.54
2023-04-18T02:10:11.041Z,7.52
2023-04-18T02:12:39.046Z,7.52
2023-04-18T02:15:07.694Z,7.50
2023-04-18T02:17:37.991Z,7.49
2023-04-18T02:20:09.299Z,7.47
2023-04-18T02:22:40.663Z,7.45
2023-04-18T02:25:12.875Z,7.44
2023-04-18T02:27:43.323Z,7.43
2023-04-18T02:30:16.495Z,7.43
2023-04-18T02:32:59.007Z,7.42
2023-04-18T02:35:43.541Z,7.41
2023-04-18T02:38:21.793Z,7.40
2023-04-18T02:41:01.152Z,7.39
2023-04-18T02:43:37.402Z,7.39
2023-04-18T02:46:13.149Z,7.34
2023-04-18T02:48:45.572Z,7.32
2023-04-18T02:51:17.072Z,7.35
2023-04-18T02:53:49.428Z,7.34
2023-04-18T02:56:28.220Z,7.33
2023-04-18T02:59:15.100Z,7.31
2023-04-18T03:02:03.996Z,7.28
2023-04-18T03:04:33.187Z,7.27
2023-04-18T03:07:03.486Z,7.27
2023-04-18T03:09:35.092Z,7.27
2023-04-18T03:12:07.177Z,7.26
2023-04-18T03:14:36.347Z,7.28
2023-04-18T03:17:04.863Z,7.28
2023-04-18T03:19:37.910Z,7.27
2023-04-18T03:22:09.308Z,7.28
2023-04-18T03:24:40.914Z,7.31
2023-04-18T03:27:09.347Z,7.33
2023-04-18T03:29:38.629Z,7.34
2023-04-18T03:32:07.242Z,7.37
2023-04-18T03:34:36.113Z,7.38
2023-04-18T03:37:05.459Z,7.40
2023-04-18T03:39:37.599Z,7.41
2023-04-18T03:42:06.084Z,7.42
2023-04-18T03:44:35.254Z,7.45
2023-04-18T03:47:04.412Z,7.46
2023-04-18T03:49:33.098Z,7.48
2023-04-18T03:52:01.678Z,7.51
2023-04-18T03:54:30.002Z,7.53
2023-04-18T03:56:59.506Z,7.56
2023-04-18T03:59:27.854Z,7.57
2023-04-18T04:01:56.202Z,7.61
2023-04-18T04:04:24.614Z,7.63
2023-04-18T04:06:52.946Z,7.64
2023-04-18T04:09:21.535Z,7.66
2023-04-18T04:11:51.149Z,7.67
2023-04-18T04:14:20.091Z,7.68
2023-04-18T04:16:48.139Z,7.70
2023-04-18T04:19:17.806Z,7.73
2023-04-18T04:21:54.863Z,7.76
2023-04-18T04:24:23.086Z,7.78
2023-04-18T04:26:53.032Z,7.81
2023-04-18T04:29:23.972Z,7.84
2023-04-18T04:31:52.877Z,7.85
2023-04-18T04:34:28.658Z,7.89
2023-04-18T04:36:56.877Z,7.92
2023-04-18T04:39:25.889Z,7.96
2023-04-18T04:42:13.446Z,8.02
2023-04-18T04:44:50.537Z,8.07
2023-04-18T04:47:19.511Z,8.12
2023-04-18T04:49:47.845Z,8.16
2023-04-18T04:52:16.148Z,8.21
2023-04-18T04:54:45.934Z,8.27
2023-04-18T04:57:15.638Z,8.35
2023-04-18T04:59:43.878Z,8.42
2023-04-18T05:02:12.414Z,8.50
2023-04-18T05:04:40.600Z,8.58
2023-04-18T05:07:08.613Z,8.66
2023-04-18T05:09:36.778Z,8.73
2023-04-18T05:12:05.266Z,8.82
2023-04-18T05:14:33.267Z,8.91
2023-04-18T05:17:01.320Z,9.01
2023-04-18T05:19:29.626Z,9.11
2023-04-18T05:21:57.540Z,9.19
2023-04-18T05:24:25.590Z,9.29
2023-04-18T05:26:53.893Z,9.40
2023-04-18T05:29:21.905Z,9.50
2023-04-18T05:31:50.391Z,9.58
2023-04-18T05:34:18.449Z,9.66
2023-04-18T05:36:48.055Z,9.73
2023-04-18T05:39:17.064Z,9.80
2023-04-18T05:41:45.175Z,9.87
2023-04-18T05:44:13.320Z,9.92
2023-04-18T05:46:41.618Z,9.98
2023-04-18T05:49:10.052Z,10.03
2023-04-18T05:51:38.184Z,10.07
2023-04-18T05:54:06.274Z,10.11
2023-04-18T05:56:34.444Z,10.18
2023-04-18T05:59:02.497Z,10.27
2023-04-18T06:01:30.518Z,10.36
2023-04-18T06:03:58.698Z,10.48
2023-04-18T06:06:27.751Z,10.61
2023-04-18T06:08:56.023Z,10.73
2023-04-18T06:11:24.025Z,10.88
2023-04-18T06:13:52.057Z,11.05
2023-04-18T06:16:20.435Z,11.21
2023-04-18T06:18:48.472Z,11.37
2023-04-18T06:21:16.698Z,11.51
2023-04-18T06:23:44.739Z,11.64
2023-04-18T06:26:12.841Z,11.73
2023-04-18T06:28:41.089Z,11.81
2023-04-18T06:31:09.377Z,11.91
2023-04-18T06:33:37.929Z,12.02
2023-04-18T06:36:07.350Z,12.10
2023-04-18T06:38:35.810Z,12.19
2023-04-18T06:41:03.921Z,12.28
2023-04-18T06:43:32.135Z,12.40
2023-04-18T06:46:01.311Z,12.55
2023-04-18T06:48:29.875Z,12.68
2023-04-18T06:50:57.937Z,12.79
2023-04-18T06:53:26.087Z,12.87
2023-04-18T06:55:54.155Z,12.92
2023-04-18T06:58:22.422Z,12.97
2023-04-18T07:00:52.114Z,13.01
2023-04-18T07:03:20.538Z,13.03
2023-04-18T07:05:50.451Z,13.08
2023-04-18T07:08:18.813Z,13.14
2023-04-18T07:10:47.164Z,13.22
2023-04-18T07:13:16.036Z,13.32
2023-04-18T07:15:44.169Z,13.42
2023-04-18T07:18:16.068Z,13.55
2023-04-18T07:20:46.320Z,13.69
2023-04-18T07:23:14.318Z,13.76
2023-04-18T07:25:42.503Z,13.76
2023-04-18T07:28:10.689Z,13.71
2023-04-18T07:30:38.770Z,13.69
2023-04-18T07:33:07.536Z,13.72
2023-04-18T07:35:36.171Z,13.76
2023-04-18T07:38:04.211Z,13.79
2023-04-18T07:40:32.309Z,13.84
2023-04-18T07:43:00.550Z,13.90
2023-04-18T07:45:28.676Z,13.91
2023-04-18T07:47:57.104Z,13.85
2023-04-18T07:50:25.210Z,13.87
2023-04-18T07:52:53.230Z,13.92
2023-04-18T07:55:21.731Z,14.00
2023-04-18T07:57:50.583Z,14.08
2023-04-18T08:00:18.761Z,14.19
2023-04-18T08:02:46.931Z,14.30
2023-04-18T08:05:15.516Z,14.40
2023-04-18T08:07:43.745Z,14.52
2023-04-18T08:10:12.122Z,14.61
2023-04-18T08:12:40.738Z,14.70
2023-04-18T08:15:09.176Z,14.80
2023-04-18T08:17:39.147Z,14.82
2023-04-18T08:20:07.820Z,14.86
2023-04-18T08:22:43.551Z,14.89
2023-04-18T08:25:18.522Z,14.89
2023-04-18T08:27:46.554Z,14.88
2023-04-18T08:30:14.785Z,14.86
2023-04-18T08:32:42.879Z,14.81
2023-04-18T08:35:10.897Z,14.71
2023-04-18T08:37:39.170Z,14.57
2023-04-18T08:40:07.729Z,14.45
2023-04-18T08:42:36.560Z,14.35
2023-04-18T08:45:06.244Z,14.24
2023-04-18T08:47:35.443Z,14.17
2023-04-18T08:50:04.036Z,14.12
2023-04-18T08:52:32.654Z,14.04
2023-04-18T08:55:02.938Z,13.94
2023-04-18T08:57:31.547Z,13.96
2023-04-18T09:00:02.362Z,14.03
2023-04-18T09:02:42.783Z,14.11
2023-04-18T09:05:16.481Z,14.24
2023-04-18T09:07:44.935Z,14.39
2023-04-18T09:10:13.944Z,14.54
2023-04-18T09:12:52.433Z,14.79
2023-04-18T09:15:23.806Z,15.21
2023-04-18T09:17:54.561Z,15.61
2023-04-18T09:20:38.197Z,15.97
2023-04-18T09:23:11.232Z,16.30
2023-04-18T09:25:45.417Z,16.51
2023-04-18T09:28:30.092Z,16.58
2023-04-18T09:30:59.737Z,16.63
2023-04-18T09:33:32.607Z,16.63
2023-04-18T09:36:18.273Z,16.61
2023-04-18T09:38:46.856Z,16.55
2023-04-18T09:41:20.067Z,16.51
2023-04-18T09:43:49.367Z,16.50
2023-04-18T09:46:22.673Z,16.47
2023-04-18T09:48:51.103Z,16.44
2023-04-18T09:51:19.094Z,16.56
2023-04-18T09:53:50.346Z,16.73
2023-04-18T09:56:28.378Z,16.88
2023-04-18T09:58:57.389Z,17.08
2023-04-18T10:01:28.599Z,17.28
2023-04-18T10:03:56.848Z,17.49
2023-04-18T10:06:24.997Z,17.75
2023-04-18T10:08:52.959Z,17.99
2023-04-18T10:11:22.041Z,18.13
2023-04-18T10:13:50.159Z,18.23
2023-04-18T10:16:18.382Z,18.29
2023-04-18T10:18:46.407Z,18.27
2023-04-18T10:21:15.374Z,18.22
2023-04-18T10:23:43.336Z,18.16
2023-04-18T10:26:11.417Z,18.02
2023-04-18T10:28:54.323Z,17.85
2023-04-18T10:31:23.844Z,17.61
2023-04-18T10:36:30.275Z,17.11
2023-04-18T10:39:04.326Z,16.91
2023-04-18T10:41:33.894Z,16.79
2023-04-18T10:44:22.025Z,16.69
2023-04-18T10:46:52.950Z,16.55
2023-04-18T10:49:32.957Z,16.51
2023-04-18T10:52:02.119Z,16.48
2023-04-18T10:54:43.915Z,16.51
2023-04-18T10:57:13.373Z,16.61
2023-04-18T10:59:42.378Z,16.69
2023-04-18T11:02:26.438Z,16.73
2023-04-18T11:04:58.446Z,16.73
2023-04-18T11:07:36.291Z,16.70
2023-04-18T11:10:08.391Z,16.56
2023-04-18T11:12:39.900Z,16.37
2023-04-18T11:15:12.661Z,16.16
2023-04-18T11:17:41.254Z,15.93
2023-04-18T11:20:14.325Z,15.69
2023-04-18T11:22:49.456Z,15.40
2023-04-18T11:25:18.727Z,15.15
2023-04-18T11:27:47.915Z,14.89
2023-04-18T11:30:16.367Z,14.68
2023-04-18T11:32:44.716Z,14.49
2023-04-18T11:35:14.065Z,14.33
2023-04-18T11:37:43.086Z,14.12
2023-04-18T11:40:11.861Z,13.93
2023-04-18T11:42:40.657Z,13.78
2023-04-18T11:45:12.776Z,13.69
2023-04-18T11:47:43.070Z,13.62
2023-04-18T11:50:12.249Z,13.55
2023-04-18T11:52:41.425Z,13.47
2023-04-18T11:55:23.993Z,13.36
2023-04-18T11:57:58.228Z,13.21
2023-04-18T12:00:32.939Z,13.05
2023-04-18T12:03:02.221Z,12.92
2023-04-18T12:05:32.132Z,12.84
2023-04-18T12:08:10.011Z,12.76
2023-04-18T12:10:38.437Z,12.67
2023-04-18T12:13:08.392Z,12.54
2023-04-18T12:15:38.834Z,12.38
2023-04-18T12:18:09.768Z,12.20
2023-04-18T12:20:39.673Z,12.06
2023-04-18T12:23:08.119Z,11.96
2023-04-18T12:25:36.891Z,11.87
2023-04-18T12:28:15.193Z,11.80
2023-04-18T12:30:43.381Z,11.76
2023-04-18T12:33:13.957Z,11.72
2023-04-18T12:35:42.651Z,11.67
2023-04-18T12:38:11.103Z,11.60
2023-04-18T12:40:39.884Z,11.53
2023-04-18T12:43:08.276Z,11.43
2023-04-18T12:45:36.465Z,11.36
2023-04-18T12:48:04.809Z,11.29
2023-04-18T12:50:33.004Z,11.25
2023-04-18T12:53:01.595Z,11.19
2023-04-18T12:55:29.712Z,11.14
2023-04-18T12:57:58.312Z,11.10
2023-04-18T13:00:32.860Z,11.07
2023-04-18T13:03:11.762Z,11.03
2023-04-18T13:05:49.173Z,11.01
2023-04-18T13:08:22.652Z,10.95
2023-04-18T13:10:57.371Z,10.91
2023-04-18T13:13:29.420Z,11.01
2023-04-18T13:16:00.114Z,11.12
2023-04-18T13:18:44.554Z,11.10
2023-04-18T13:21:14.839Z,11.06
2023-04-18T13:23:53.659Z,11.00
2023-04-18T13:26:29.152Z,10.94
2023-04-18T13:29:07.904Z,10.91
2023-04-18T13:31:50.100Z,10.89
2023-04-18T13:34:24.657Z,10.89
2023-04-18T13:37:09.985Z,10.99
2023-04-18T13:51:32.264Z,11.78
2023-04-18T13:54:16.752Z,11.94
2023-04-18T13:56:48.733Z,11.85
2023-04-18T13:59:24.683Z,11.77
2023-04-18T14:02:08.200Z,11.69
2023-04-18T14:04:37.120Z,11.66
2023-04-18T14:07:08.734Z,11.69
2023-04-18T14:09:38.948Z,11.68
2023-04-18T14:12:22.473Z,11.60
2023-04-18T14:17:44.034Z,11.50
2023-04-18T14:20:15.748Z,11.46
2023-04-18T14:22:43.838Z,11.39
2023-04-18T14:25:11.836Z,11.36
2023-04-18T14:27:40.433Z,11.32
2023-04-18T14:30:09.268Z,11.34
2023-04-18T14:32:37.604Z,11.37
2023-04-18T14:35:07.327Z,11.32
2023-04-18T14:37:36.395Z,11.27
2023-04-18T14:40:05.948Z,11.22
2023-04-18T14:42:34.271Z,11.17
2023-04-18T14:45:03.005Z,11.11
2023-04-18T14:47:34.742Z,11.05
2023-04-18T14:50:02.941Z,11.00
2023-04-18T14:52:31.369Z,11.00
2023-04-18T14:54:59.384Z,11.11
2023-04-18T14:57:29.662Z,11.23
2023-04-18T14:59:57.639Z,11.24
2023-04-18T15:02:26.642Z,11.24
2023-04-18T15:04:56.822Z,11.25
2023-04-18T15:07:24.967Z,11.25
2023-04-18T15:09:53.256Z,11.24
2023-04-18T15:12:22.272Z,11.21
2023-04-18T15:14:50.337Z,11.17
2023-04-18T15:17:18.478Z,11.14
2023-04-18T15:19:46.485Z,11.11
2023-04-18T15:22:14.488Z,11.05
2023-04-18T15:24:42.549Z,11.00
2023-04-18T15:27:10.973Z,10.96
2023-04-18T15:29:39.583Z,11.03
2023-04-18T15:32:09.352Z,11.06
2023-04-18T15:34:37.394Z,11.03
2023-04-18T15:37:05.632Z,11.00
2023-04-18T15:39:33.684Z,10.95
2023-04-18T15:42:02.362Z,10.96
2023-04-18T15:44:50.452Z,10.92
2023-04-18T15:47:18.618Z,10.88
2023-04-18T15:49:47.249Z,10.85
2023-04-18T15:52:16.086Z,10.81
2023-04-18T15:54:44.120Z,10.79
2023-04-18T15:57:12.228Z,10.88
2023-04-18T15:59:40.352Z,10.93
2023-04-18T16:02:09.020Z,10.90
2023-04-18T16:04:38.493Z,10.89
2023-04-18T16:07:07.352Z,10.86
2023-04-18T16:09:35.880Z,10.85
2023-04-18T16:12:04.898Z,10.81
2023-04-18T16:14:33.897Z,10.78
2023-04-18T16:17:02.956Z,10.76
2023-04-18T16:19:32.953Z,10.72
2023-04-18T16:22:07.282Z,10.66
2023-04-18T16:24:35.587Z,10.59
2023-04-18T16:27:03.849Z,10.54
2023-04-18T16:29:31.967Z,10.50
2023-04-18T16:32:03.202Z,10.46
2023-04-18T16:34:31.347Z,10.42
2023-04-18T16:36:59.632Z,10.48
2023-04-18T16:39:29.252Z,10.51
2023-04-18T16:41:57.727Z,10.49
2023-04-18T16:44:26.459Z,10.47
2023-04-18T16:46:55.170Z,10.45
2023-04-18T16:49:23.786Z,10.42
2023-04-18T16:51:52.131Z,10.40
2023-04-18T16:54:20.637Z,10.38
2023-04-18T16:56:48.737Z,10.36
2023-04-18T16:59:18.098Z,10.33
2023-04-18T17:01:46.731Z,10.29
2023-04-18T17:04:15.848Z,10.27
2023-04-18T17:06:44.787Z,10.25
2023-04-18T17:09:16.413Z,10.23
2023-04-18T17:11:45.154Z,10.32
2023-04-18T17:14:13.719Z,10.40
2023-04-18T17:16:42.631Z,10.40
2023-04-18T17:19:11.672Z,10.37
2023-04-18T17:21:39.997Z,10.35
2023-04-18T17:24:09.366Z,10.33
2023-04-18T17:26:38.543Z,10.31
2023-04-18T17:29:06.520Z,10.27
2023-04-18T17:31:34.727Z,10.25
2023-04-18T17:34:03.821Z,10.21
2023-04-18T17:36:32.861Z,10.16
2023-04-18T17:39:06.809Z,10.12
2023-04-18T17:41:39.479Z,10.18
2023-04-18T17:44:08.372Z,10.23
2023-04-18T17:46:37.002Z,10.21
2023-04-18T17:49:08.630Z,10.19
2023-04-18T17:51:36.898Z,10.17
2023-04-18T17:54:05.575Z,10.16
2023-04-18T17:56:33.946Z,10.14
2023-04-18T17:59:02.635Z,10.13
2023-04-18T18:01:30.806Z,10.10
2023-04-18T18:03:58.965Z,10.08
2023-04-18T18:06:30.548Z,10.04
2023-04-18T18:08:58.739Z,10.10
2023-04-18T18:11:27.807Z,10.17
2023-04-18T18:13:57.646Z,10.16
2023-04-18T18:16:26.034Z,10.14
2023-04-18T18:18:54.791Z,10.12
2023-04-18T18:21:23.218Z,10.10
2023-04-18T18:23:51.449Z,10.07
2023-04-18T18:26:19.719Z,10.03
2023-04-18T18:28:47.871Z,9.98
2023-04-18T18:31:16.917Z,9.92
2023-04-18T18:33:45.119Z,9.88
2023-04-18T18:36:13.241Z,9.85
2023-04-18T18:38:41.702Z,9.82
2023-04-18T18:41:10.057Z,9.91
2023-04-18T18:43:38.075Z,9.97
2023-04-18T18:46:06.183Z,9.97
2023-04-18T18:48:38.198Z,9.96
2023-04-18T18:51:06.312Z,9.95
2023-04-18T18:53:34.922Z,9.97
2023-04-18T18:56:05.429Z,9.96
2023-04-18T18:58:34.867Z,9.96
2023-04-18T19:01:03.644Z,9.93
2023-04-18T19:03:32.758Z,9.90
2023-04-18T19:06:03.955Z,9.88
2023-04-18T19:08:32.217Z,9.88
2023-04-18T19:11:00.357Z,9.96
2023-04-18T19:13:28.873Z,10.03
2023-04-18T19:15:57.233Z,10.03
2023-04-18T19:18:25.995Z,10.02
2023-04-18T19:20:55.089Z,10.02
2023-04-18T19:23:25.276Z,10.01
2023-04-18T19:25:53.468Z,10.00
2023-04-18T19:28:23.250Z,9.99
2023-04-18T19:30:53.119Z,9.97
2023-04-18T19:33:24.302Z,9.96
2023-04-18T19:35:52.310Z,9.95
2023-04-18T19:38:20.771Z,9.93
2023-04-18T19:40:48.858Z,9.90
2023-04-18T19:43:17.085Z,9.86
2023-04-18T19:45:45.594Z,9.82
2023-04-18T19:48:13.750Z,9.79
2023-04-18T19:50:42.422Z,9.86
2023-04-18T19:53:11.053Z,9.93
2023-04-18T19:55:39.280Z,9.92
2023-04-18T19:58:07.646Z,9.90
2023-04-18T20:00:35.961Z,9.90
2023-04-18T20:03:04.634Z,9.90
2023-04-18T20:05:33.250Z,9.88
2023-04-18T20:08:01.311Z,9.87
2023-04-18T20:10:29.970Z,9.85
2023-04-18T20:12:58.261Z,9.82
2023-04-18T20:15:26.167Z,9.79
2023-04-18T20:17:54.138Z,9.76
2023-04-18T20:20:23.537Z,9.75
2023-04-18T20:22:51.584Z,9.72
2023-04-18T20:25:19.709Z,9.70
2023-04-18T20:27:48.319Z,9.69
2023-04-18T20:30:16.285Z,9.77
2023-04-18T20:32:44.575Z,9.86
2023-04-18T20:35:12.899Z,9.86
2023-04-18T20:37:41.477Z,9.85
2023-04-18T20:40:10.072Z,9.86
2023-04-18T20:42:39.028Z,9.85
2023-04-18T20:45:11.309Z,9.83
2023-04-18T20:47:41.492Z,9.81
2023-04-18T20:50:10.151Z,9.78
2023-04-18T20:52:38.623Z,9.75
2023-04-18T20:55:06.728Z,9.73
2023-04-18T20:57:35.968Z,9.70
2023-04-18T21:00:06.742Z,9.66
2023-04-18T21:02:36.220Z,9.62
2023-04-18T21:05:04.709Z,9.59
2023-04-18T21:07:32.879Z,9.57
2023-04-18T21:10:00.888Z,9.64
2023-04-18T21:12:29.379Z,9.71
2023-04-18T21:14:57.449Z,9.70
2023-04-18T21:17:25.917Z,9.69
2023-04-18T21:19:54.966Z,9.69
2023-04-18T21:22:22.943Z,9.69
2023-04-18T21:24:50.824Z,9.69
2023-04-18T21:27:18.895Z,9.66
2023-04-18T21:29:46.815Z,9.63
2023-04-18T21:32:14.750Z,9.60
2023-04-18T21:34:42.754Z,9.59
2023-04-18T21:37:10.677Z,9.55
2023-04-18T21:39:39.487Z,9.52
2023-04-18T21:42:07.565Z,9.47
2023-04-18T21:44:36.222Z,9.41
2023-04-18T21:47:04.233Z,9.35
2023-04-18T21:49:32.253Z,9.29
2023-04-18T21:52:00.580Z,9.21
2023-04-18T21:54:28.547Z,9.12
2023-04-18T21:56:57.009Z,9.07
2023-04-18T21:59:25.099Z,8.99
2023-04-18T22:01:53.090Z,8.92
2023-04-18T22:04:26.118Z,8.98
2023-04-18T22:06:54.732Z,9.05
2023-04-18T22:09:23.521Z,9.06
2023-04-18T22:11:51.962Z,9.03
2023-04-18T22:14:20.088Z,9.02
2023-04-18T22:16:50.220Z,9.02
2023-04-18T22:19:19.505Z,8.99
2023-04-18T22:21:47.583Z,8.96
2023-04-18T22:24:15.822Z,8.94
2023-04-18T22:26:44.152Z,8.94
2023-04-18T22:29:12.173Z,9.03
2023-04-18T22:31:40.280Z,9.12
2023-04-18T22:34:08.256Z,9.13
2023-04-18T22:36:36.443Z,9.09
2023-04-18T22:39:06.282Z,9.07
2023-04-18T22:41:36.917Z,9.05
2023-04-18T22:44:04.976Z,9.04
2023-04-18T22:46:33.349Z,9.06
2023-04-18T22:49:01.347Z,9.08
2023-04-18T22:51:29.556Z,9.11
2023-04-18T22:53:57.525Z,9.13
2023-04-18T22:56:26.116Z,9.15
2023-04-18T22:58:54.260Z,9.17
2023-04-18T23:01:22.447Z,9.19
2023-04-18T23:03:50.706Z,9.19
2023-04-18T23:06:18.842Z,9.19
2023-04-18T23:08:47.216Z,9.19
2023-04-18T23:11:15.911Z,9.19
2023-04-18T23:13:44.428Z,9.17
2023-04-18T23:16:12.482Z,9.18
2023-04-18T23:18:40.473Z,9.16
2023-04-18T23:21:08.447Z,9.15
2023-04-18T23:23:36.428Z,9.13
2023-04-18T23:26:25.476Z,9.12
2023-04-18T23:28:53.647Z,9.14
2023-04-18T23:31:21.843Z,9.23
2023-04-18T23:33:49.998Z,9.32
2023-04-18T23:36:18.007Z,9.31
2023-04-18T23:38:46.913Z,9.27
2023-04-18T23:41:15.933Z,9.24
2023-04-18T23:43:44.742Z,9.21
2023-04-18T23:46:13.313Z,9.22
2023-04-18T23:48:41.674Z,9.23
2023-04-18T23:51:10.001Z,9.23
2023-04-18T23:53:39.985Z,9.24
2023-04-18T23:56:08.441Z,9.25
2023-04-18T23:58:36.848Z,9.25
